Airfield :
LOGIN :

Register | Disclaimer

   EN    FR    IT 

 










Legend :    VFR   Marginal VFR   IFR   Intensive IFR   Very Intensive IFR
Visi :
Ceiling :
>= 8 km
>= 3000ft
5 to 8 km
1000 to 3000 ft
1500m to 5 km
500 to 1000 ft
800 to 1500m
200 to 500 ft
< 800m
< 200 ft
Symbols :   Thunderstorms  Fog  Heavy snow  Heavy precipitations  Wind > 20 kt
SIGMETs :     Misc.  Thunderstorms  Icing  Turbulence  Mountain Waves  Volcanic Ashes







- Airport Elevation : 194 ft
- IATA code : LME
- Download approach charts


LFRM - Le Mans

CURRENT METAR :
  • 221000Z AUTO VRB03KT 2600 BR BKN003 BKN012 BKN031 02/02 Q1007 BECMG 9999 NSW SCT010 BKN100

EXPIRED METARs :
  • 220930Z AUTO VRB03KT 2600 -DZ BR BKN004 BKN013 OVC045 02/02 Q1008 BECMG 9999 NSW SCT010 BKN100
  • 220900Z AUTO VRB02KT 2700 BR OVC005/// ///TCU 02/02 Q1008 BECMG 9999 NSW SCT010 BKN100
  • 220830Z AUTO 25005KT 170V320 2400 -RA BR BKN005/// OVC009/// ///TCU 02/02 Q1008 BECMG 9999 NSW SCT010 BKN100
  • 220800Z AUTO VRB02KT 3000 -RA BR BKN006 OVC017 02/01 Q1008 BECMG 9999 NSW SCT010 BKN100
  • 220730Z AUTO 18006KT 140V210 3200 -RA BR BKN005 OVC010 01/01 Q1008 BECMG 9999 NSW SCT010 BKN100
  • 220700Z AUTO 18005KT 140V210 3200 -RA BR BKN006 OVC025 01/01 Q1009 BECMG 9999 NSW SCT010 BKN100

TAF AMD TAF LFRM
Valid from the 22 at 08:00 until the 23 at 06:00 UTC


220807Z 2208/2306 18005KT 3000 -RA BKN005 BKN018 OVC035
BECMG 2210/2212 9999 NSW SCT010 BKN100
TEMPO 2218/2306 4500 -SHRA BKN010
PROB40
TEMPO 2221/2224 SHSN
No reported NOTAMs for that airfield.



MET'MAP, your aeronautical weather chart ! - Copyright ORBIFLY December 2007 - Disclaimer

ORBIFLY MET'MAP TEAM :

Programming & Development : Alexandra Zaïnal
Concept & Development : Baudouin d'Aumeries
Co-Development & Prog : Marc-Olivier Méhu
Technical & hardware support : Manuel Goepfert

Contact : metmap@orbifly.com




SOURCES & CREDITS :

   NOAA